Time;durP1;ratioP1;P1;durP2;ratioP2;P2;SDS_P1;SDS_P2;PMS_P1;PMS_P2;Temp;Humidity;BMP_temperature;BMP_pressure;BME280_temperature;BME280_humidity;BME280_pressure;Samples;Min_cycle;Max_cycle;Signal;HPM_P1;HPM_P2
2023/01/22 00:02:09;;;;;;;11.80;7.15;;;;;;;1.69;100.00;101356.78;5031241;28;20246;-75
2023/01/22 00:04:36;;;;;;;10.77;8.18;;;;;;;1.73;100.00;101350.59;5019985;28;20205;-75
2023/01/22 00:07:03;;;;;;;15.25;7.55;;;;;;;1.69;100.00;101356.78;5017369;28;20199;-75
2023/01/22 00:09:29;;;;;;;13.25;7.70;;;;;;;1.72;100.00;101347.94;5016050;28;20728;-76
2023/01/22 00:11:56;;;;;;;10.75;7.00;;;;;;;1.73;100.00;101347.06;5032925;28;20264;-76
2023/01/22 00:14:23;;;;;;;11.70;6.90;;;;;;;1.68;100.00;101341.72;5039200;28;20207;-75
2023/01/22 00:16:50;;;;;;;13.38;7.95;;;;;;;1.72;100.00;101350.59;5038432;28;20603;-76
2023/01/22 00:19:18;;;;;;;9.68;7.03;;;;;;;1.70;100.00;101344.38;5036154;28;20478;-76
2023/01/22 00:21:44;;;;;;;11.00;7.30;;;;;;;1.66;100.00;101351.47;5036545;28;20233;-76
2023/01/22 00:24:11;;;;;;;12.35;7.47;;;;;;;1.64;100.00;101350.56;5038168;28;20290;-74
2023/01/22 00:26:39;;;;;;;10.45;6.38;;;;;;;1.72;100.00;101343.53;5029972;28;20272;-75
2023/01/22 00:29:05;;;;;;;11.70;7.30;;;;;;;1.65;100.00;101339.94;5017172;28;20201;-75
2023/01/22 00:31:32;;;;;;;9.85;7.30;;;;;;;1.57;100.00;101341.66;5023635;28;20223;-74
2023/01/22 00:33:59;;;;;;;8.70;7.28;;;;;;;1.61;100.00;101340.81;5037561;28;20299;-75
2023/01/22 00:36:26;;;;;;;10.25;6.82;;;;;;;1.60;100.00;101340.78;5036117;28;20205;-75
2023/01/22 00:38:53;;;;;;;10.35;6.93;;;;;;;1.62;100.00;101344.34;5019189;28;20212;-76
2023/01/22 00:41:20;;;;;;;17.95;10.07;;;;;;;1.53;100.00;101337.19;5037882;28;20229;-76
2023/01/22 00:43:47;;;;;;;11.93;8.10;;;;;;;1.57;100.00;101336.34;5032388;28;20289;-75
2023/01/22 00:46:16;;;;;;;11.32;7.28;;;;;;;1.54;100.00;101330.13;5018679;28;20215;-75
2023/01/22 00:48:44;;;;;;;10.80;7.35;;;;;;;1.52;100.00;101331.91;5018320;28;20687;-75
2023/01/22 00:51:11;;;;;;;10.73;7.90;;;;;;;1.53;100.00;101331.00;5018592;28;20220;-74
2023/01/22 00:53:41;;;;;;;11.35;6.97;;;;;;;1.52;100.00;101326.59;5019522;28;20264;-75
2023/01/22 00:56:08;;;;;;;12.68;6.93;;;;;;;1.50;100.00;101331.00;5019441;28;20210;-74
2023/01/22 00:58:34;;;;;;;9.77;6.75;;;;;;;1.50;100.00;101328.34;5030013;28;20203;-75
2023/01/22 01:01:01;;;;;;;10.75;6.72;;;;;;;1.48;100.00;101330.09;5039729;28;20297;-76
2023/01/22 01:03:30;;;;;;;13.73;8.23;;;;;;;1.48;100.00;101325.66;5037426;28;20209;-74
2023/01/22 01:05:58;;;;;;;13.05;8.07;;;;;;;1.55;100.00;101327.47;5039669;28;20200;-74
2023/01/22 01:08:26;;;;;;;11.57;7.35;;;;;;;1.48;100.00;101330.09;5039133;28;20288;-75
2023/01/22 01:10:59;;;;;;;13.13;7.75;;;;;;;1.45;100.00;101336.28;5037858;28;20696;-76
2023/01/22 01:13:26;;;;;;;11.55;7.13;;;;;;;1.44;100.00;101329.19;5038825;28;20208;-75
2023/01/22 01:15:59;;;;;;;11.10;7.88;;;;;;;1.48;100.00;101335.41;5039237;28;20211;-74
2023/01/22 01:18:26;;;;;;;12.35;7.38;;;;;;;1.43;100.00;101328.28;5039308;28;20216;-74
2023/01/22 01:20:54;;;;;;;11.85;7.72;;;;;;;1.46;100.00;101322.13;5041433;28;20296;-75
2023/01/22 01:23:21;;;;;;;12.77;7.40;;;;;;;1.49;100.00;101322.13;5023797;28;20236;-76
2023/01/22 01:25:48;;;;;;;11.00;7.50;;;;;;;1.48;100.00;101327.44;5040423;28;20241;-74
2023/01/22 01:28:16;;;;;;;9.77;7.00;;;;;;;1.49;100.00;101332.75;5039048;28;20676;-76
2023/01/22 01:30:42;;;;;;;11.88;7.50;;;;;;;1.50;100.00;101331.00;5041234;28;20237;-75
2023/01/22 01:33:09;;;;;;;12.88;7.40;;;;;;;1.53;100.00;101338.97;5040484;28;20209;-75
2023/01/22 01:35:35;;;;;;;11.85;7.65;;;;;;;1.54;100.00;101330.13;5039631;28;20205;-75
2023/01/22 01:38:02;;;;;;;8.73;6.63;;;;;;;1.51;100.00;101335.41;5040436;28;20268;-74
2023/01/22 01:40:29;;;;;;;10.55;6.65;;;;;;;1.46;100.00;101335.38;5034714;28;20235;-75
2023/01/22 01:42:56;;;;;;;10.20;6.75;;;;;;;1.48;100.00;101332.75;5020300;28;20313;-75
2023/01/22 01:45:27;;;;;;;9.05;6.30;;;;;;;1.46;100.00;101335.38;5019891;28;20208;-73
2023/01/22 01:48:01;;;;;;;11.13;7.30;;;;;;;1.52;100.00;101331.91;5019940;28;20190;-75
2023/01/22 01:50:29;;;;;;;9.80;6.75;;;;;;;1.52;100.00;101331.91;5020024;28;20232;-75
2023/01/22 01:52:57;;;;;;;7.82;5.90;;;;;;;1.51;100.00;101335.41;5019916;28;20208;-75
2023/01/22 01:55:28;;;;;;;9.05;6.20;;;;;;;1.49;100.00;101326.56;5031465;28;20204;-75
2023/01/22 01:57:57;;;;;;;9.40;6.28;;;;;;;1.51;100.00;101328.34;5038718;28;20236;-75
2023/01/22 02:00:27;;;;;;;10.07;6.20;;;;;;;1.55;100.00;101324.81;5039002;28;20227;-75
2023/01/22 02:02:54;;;;;;;11.07;6.30;;;;;;;1.60;100.00;101324.84;5037417;28;20310;-75
2023/01/22 02:05:22;;;;;;;8.88;5.85;;;;;;;1.62;100.00;101323.97;5038765;28;20261;-75
2023/01/22 02:07:48;;;;;;;7.85;5.13;;;;;;;1.61;100.00;101326.66;5031791;28;20209;-74
2023/01/22 02:10:15;;;;;;;7.43;5.03;;;;;;;1.57;100.00;101316.88;5024027;28;20268;-75
2023/01/22 02:12:42;;;;;;;8.57;6.05;;;;;;;1.61;100.00;101326.66;5030887;28;20264;-74
2023/01/22 02:15:10;;;;;;;7.93;6.00;;;;;;;1.61;100.00;101321.34;5029267;28;20205;-75
2023/01/22 02:17:38;;;;;;;8.02;5.88;;;;;;;1.62;100.00;101325.75;5024691;28;20201;-73
2023/01/22 02:20:05;;;;;;;7.25;5.35;;;;;;;1.56;100.00;101307.13;5019806;28;20228;-76
2023/01/22 02:22:37;;;;;;;6.57;5.22;;;;;;;1.62;100.00;101316.00;5019608;28;20220;-75
2023/01/22 02:25:04;;;;;;;8.05;5.75;;;;;;;1.61;100.00;101311.59;5018361;28;20195;-75
2023/01/22 02:27:31;;;;;;;7.50;5.75;;;;;;;1.60;100.00;101317.75;5017227;28;20209;-76
2023/01/22 02:29:57;;;;;;;8.23;6.10;;;;;;;1.61;100.00;101316.03;5017744;28;20232;-75
2023/01/22 02:32:24;;;;;;;9.27;5.40;;;;;;;1.57;100.00;101315.09;5018441;28;20185;-75
2023/01/22 02:34:50;;;;;;;7.60;5.68;;;;;;;1.57;100.00;101320.41;5018787;28;20580;-76
2023/01/22 02:37:17;;;;;;;8.27;5.53;;;;;;;1.69;100.00;101321.38;5018186;28;20570;-76
2023/01/22 02:39:45;;;;;;;7.90;5.88;;;;;;;1.64;100.00;101319.56;5023718;28;20200;-74
2023/01/22 02:42:12;;;;;;;7.65;5.32;;;;;;;1.65;100.00;101317.78;5037175;28;20228;-75
2023/01/22 02:44:39;;;;;;;7.38;5.20;;;;;;;1.61;100.00;101327.53;5037007;28;20237;-75
2023/01/22 02:47:06;;;;;;;8.43;5.30;;;;;;;1.69;100.00;101324.91;5034470;28;20215;-76
2023/01/22 02:49:32;;;;;;;8.02;5.03;;;;;;;1.70;100.00;101321.38;5022483;28;20202;-74
2023/01/22 02:51:59;;;;;;;8.15;5.15;;;;;;;1.63;100.00;101322.25;5016934;28;20208;-76
2023/01/22 02:54:26;;;;;;;6.53;4.97;;;;;;;1.64;100.00;101319.56;5017820;28;20213;-73
2023/01/22 02:56:54;;;;;;;7.00;5.50;;;;;;;1.69;100.00;101319.59;5018107;28;20205;-76
2023/01/22 02:59:21;;;;;;;6.03;4.93;;;;;;;1.68;100.00;101317.84;5018648;28;20204;-75
2023/01/22 03:01:47;;;;;;;5.53;4.25;;;;;;;1.68;100.00;101323.16;5030235;28;20235;-76
2023/01/22 03:04:14;;;;;;;6.00;4.40;;;;;;;1.69;100.00;101322.25;5022820;28;20203;-74
2023/01/22 03:06:42;;;;;;;5.72;4.30;;;;;;;1.63;100.00;101314.28;5019249;28;20207;-75
2023/01/22 03:09:11;;;;;;;8.35;5.38;;;;;;;1.66;100.00;101317.81;5019823;28;20204;-76
2023/01/22 03:11:39;;;;;;;5.45;4.78;;;;;;;1.65;100.00;101324.03;5020895;28;20228;-75
2023/01/22 03:22:21;;;;;;;8.25;4.85;;;;;;;1.70;100.00;101315.16;5041500;28;20223;-74
2023/01/22 03:24:50;;;;;;;6.32;4.80;;;;;;;1.62;100.00;101318.66;5053537;28;20222;-73
2023/01/22 03:27:17;;;;;;;6.15;4.55;;;;;;;1.64;100.00;101316.91;5057372;28;20200;-72
2023/01/22 03:29:45;;;;;;;4.78;4.25;;;;;;;1.65;100.00;101315.13;5056884;28;20213;-72
2023/01/22 03:32:12;;;;;;;10.25;4.82;;;;;;;1.65;100.00;101313.41;5051821;28;20269;-73
2023/01/22 03:34:39;;;;;;;5.28;4.38;;;;;;;1.66;100.00;101323.13;5037791;28;20211;-72
2023/01/22 03:37:07;;;;;;;5.60;4.82;;;;;;;1.67;100.00;101319.59;5037687;28;20200;-72
2023/01/22 03:39:34;;;;;;;7.68;4.53;;;;;;;1.62;100.00;101320.44;5034625;28;20191;-74
2023/01/22 03:42:01;;;;;;;6.38;5.05;;;;;;;1.57;100.00;101320.41;5028444;28;20244;-75
2023/01/22 03:44:27;;;;;;;5.53;4.47;;;;;;;1.58;100.00;101319.56;5020087;28;20212;-75
2023/01/22 03:46:55;;;;;;;6.47;4.60;;;;;;;1.64;100.00;101316.03;5018872;28;20220;-74
2023/01/22 03:49:22;;;;;;;6.95;5.38;;;;;;;1.67;100.00;101324.91;5018481;28;20242;-76
2023/01/22 03:51:48;;;;;;;6.22;4.28;;;;;;;1.65;100.00;101328.41;5018825;28;20584;-76
2023/01/22 03:54:18;;;;;;;5.57;4.47;;;;;;;1.65;100.00;101315.13;5019394;28;20209;-75
2023/01/22 03:56:45;;;;;;;6.53;4.68;;;;;;;1.71;100.00;101328.47;5032552;28;20270;-75
2023/01/22 03:59:11;;;;;;;6.00;4.63;;;;;;;1.69;100.00;101329.34;5038155;28;20208;-75
2023/01/22 04:01:38;;;;;;;7.45;4.10;;;;;;;1.64;100.00;101319.56;5041267;28;20221;-75
2023/01/22 04:04:06;;;;;;;5.10;4.00;;;;;;;1.66;100.00;101328.44;5039396;28;20209;-75
2023/01/22 04:06:33;;;;;;;5.53;4.28;;;;;;;1.74;100.00;101327.59;5038537;28;20201;-76
2023/01/22 04:08:59;;;;;;;5.47;4.15;;;;;;;1.73;100.00;101315.19;5038563;28;20207;-74
2023/01/22 04:11:26;;;;;;;5.43;4.35;;;;;;;1.69;100.00;101327.56;5039989;28;20223;-76
2023/01/22 04:13:55;;;;;;;5.97;5.00;;;;;;;1.66;100.00;101330.22;5039292;28;20220;-77
2023/01/22 04:16:21;;;;;;;4.65;3.88;;;;;;;1.68;100.00;101331.09;5040532;28;20216;-74
2023/01/22 04:18:48;;;;;;;6.63;4.55;;;;;;;1.71;100.00;101335.56;5039037;28;20242;-77
2023/01/22 04:21:16;;;;;;;5.35;3.80;;;;;;;1.73;100.00;101331.13;5041202;28;20287;-75
2023/01/22 04:23:42;;;;;;;6.88;4.50;;;;;;;1.71;100.00;101340.84;5041675;28;20224;-75
2023/01/22 04:26:09;;;;;;;5.68;3.75;;;;;;;1.72;100.00;101342.63;5022025;28;20603;-75
2023/01/22 04:28:35;;;;;;;4.90;4.00;;;;;;;1.77;100.00;101341.78;5020243;28;20572;-74
2023/01/22 04:31:03;;;;;;;6.45;4.32;;;;;;;1.80;100.00;101330.28;5025095;28;20230;-74
2023/01/22 04:33:30;;;;;;;7.95;5.35;;;;;;;1.76;100.00;101337.34;5027550;28;20732;-73
2023/01/22 04:35:56;;;;;;;5.90;4.47;;;;;;;1.85;100.00;101342.72;5039277;28;20197;-72
2023/01/22 04:38:24;;;;;;;5.72;4.47;;;;;;;1.82;100.00;101342.69;5038259;28;20203;-75
2023/01/22 04:40:51;;;;;;;6.15;4.32;;;;;;;1.81;100.00;101340.94;5040553;28;20223;-75
2023/01/22 04:43:17;;;;;;;5.53;4.30;;;;;;;1.87;100.00;101346.25;5040565;28;20226;-76
2023/01/22 04:45:44;;;;;;;6.63;4.03;;;;;;;1.81;100.00;101345.31;5040203;28;20205;-74
2023/01/22 04:48:11;;;;;;;5.15;4.20;;;;;;;1.85;100.00;101342.72;5039558;28;20228;-74
2023/01/22 04:50:38;;;;;;;5.63;4.32;;;;;;;1.83;100.00;101346.22;5040194;28;20243;-76
2023/01/22 04:53:05;;;;;;;5.70;4.03;;;;;;;1.93;100.00;101344.53;5040185;28;20228;-74
2023/01/22 04:55:33;;;;;;;4.72;3.88;;;;;;;1.94;100.00;101341.88;5043512;28;20208;-76
2023/01/22 04:58:00;;;;;;;7.00;4.40;;;;;;;1.86;100.00;101341.84;5040044;28;20226;-76
2023/01/22 05:00:29;;;;;;;4.20;3.60;;;;;;;1.81;100.00;101346.25;5039636;28;20220;-75
2023/01/22 05:02:57;;;;;;;5.60;4.10;;;;;;;1.84;100.00;101335.63;5039708;28;20700;-74
2023/01/22 05:05:24;;;;;;;5.20;4.00;;;;;;;1.81;100.00;101345.31;5038930;28;20207;-76
2023/01/22 05:07:51;;;;;;;5.43;4.32;;;;;;;1.83;100.00;101339.16;5039135;28;20306;-75
2023/01/22 05:10:17;;;;;;;5.07;4.47;;;;;;;1.78;100.00;101334.69;5041085;28;20223;-75
2023/01/22 05:12:46;;;;;;;4.13;3.65;;;;;;;1.82;100.00;101353.31;5040459;28;20245;-75
2023/01/22 05:15:12;;;;;;;6.00;4.25;;;;;;;1.78;100.00;101343.53;5041456;28;20237;-75
2023/01/22 05:17:39;;;;;;;5.47;4.00;;;;;;;1.85;100.00;101345.38;5039049;28;20688;-75
2023/01/22 05:20:06;;;;;;;5.93;4.03;;;;;;;1.79;100.00;101353.31;5039746;28;20246;-74
2023/01/22 05:22:33;;;;;;;6.50;4.75;;;;;;;1.77;100.00;101349.75;5038760;28;20220;-75
2023/01/22 05:25:00;;;;;;;4.70;4.07;;;;;;;1.80;100.00;101352.41;5038879;28;20205;-74
2023/01/22 05:27:26;;;;;;;4.00;3.60;;;;;;;1.80;100.00;101348.88;5038724;28;20769;-77
2023/01/22 05:29:54;;;;;;;7.28;4.00;;;;;;;1.75;100.00;101346.19;5038827;28;20223;-74
2023/01/22 05:32:21;;;;;;;4.53;3.72;;;;;;;1.76;100.00;101352.38;5039451;28;20195;-74
2023/01/22 05:34:47;;;;;;;5.65;4.10;;;;;;;1.82;100.00;101350.66;5040024;28;20204;-74
2023/01/22 05:37:14;;;;;;;4.43;3.60;;;;;;;1.83;100.00;101355.13;5040218;28;20232;-76
2023/01/22 05:39:41;;;;;;;4.22;3.70;;;;;;;1.82;100.00;101361.28;5037956;28;20204;-75
2023/01/22 05:42:07;;;;;;;5.70;4.20;;;;;;;1.83;100.00;101344.50;5041474;28;20268;-75
2023/01/22 05:44:34;;;;;;;5.32;3.88;;;;;;;1.86;100.00;101357.78;5047124;28;20278;-75
2023/01/22 05:47:04;;;;;;;5.00;4.13;;;;;;;1.84;100.00;101356.88;5048306;28;20196;-74
2023/01/22 05:49:31;;;;;;;5.70;3.90;;;;;;;1.83;100.00;101360.44;5046155;28;20225;-75
2023/01/22 05:51:57;;;;;;;4.00;3.55;;;;;;;1.82;100.00;101363.06;5044667;28;20425;-76
2023/01/22 05:54:24;;;;;;;5.63;3.72;;;;;;;1.84;100.00;101362.19;5035570;28;20198;-76
2023/01/22 05:56:50;;;;;;;5.60;4.15;;;;;;;1.82;100.00;101358.63;5030898;28;20586;-75
2023/01/22 05:59:17;;;;;;;4.45;3.50;;;;;;;1.85;100.00;101358.66;5035248;28;20634;-77
2023/01/22 06:01:43;;;;;;;4.72;3.90;;;;;;;1.84;100.00;101359.53;5031682;28;20227;-75
2023/01/22 06:04:11;;;;;;;5.05;3.72;;;;;;;1.83;100.00;101365.75;5038881;28;20290;-74
2023/01/22 06:06:38;;;;;;;5.22;4.45;;;;;;;1.83;100.00;101349.81;5039296;28;20203;-75
2023/01/22 06:09:05;;;;;;;4.93;3.90;;;;;;;1.85;100.00;101368.38;5037993;28;20205;-77
2023/01/22 06:11:31;;;;;;;4.78;4.10;;;;;;;1.86;100.00;101370.19;5038194;28;20302;-75
2023/01/22 06:13:58;;;;;;;4.88;3.78;;;;;;;1.94;100.00;101370.22;5038327;28;20204;-76
2023/01/22 06:16:24;;;;;;;5.00;4.13;;;;;;;1.95;100.00;101372.00;5039062;28;20296;-75
2023/01/22 06:18:51;;;;;;;4.85;3.95;;;;;;;1.94;100.00;101371.09;5038303;28;20213;-75
2023/01/22 06:21:19;;;;;;;4.60;3.88;;;;;;;1.93;100.00;101379.94;5037664;28;20235;-74
2023/01/22 06:23:45;;;;;;;4.47;3.83;;;;;;;1.98;100.00;101378.19;5038258;28;20323;-75
2023/01/22 06:26:12;;;;;;;5.35;4.10;;;;;;;1.99;100.00;101376.41;5038452;28;20606;-76
2023/01/22 06:28:38;;;;;;;5.20;4.20;;;;;;;2.00;100.00;101384.41;5037493;28;20201;-75
2023/01/22 06:31:06;;;;;;;5.40;4.50;;;;;;;1.97;100.00;101379.09;5038984;28;20231;-75
2023/01/22 06:33:35;;;;;;;4.82;4.38;;;;;;;1.96;100.00;101377.31;5039378;28;20686;-75
2023/01/22 06:36:01;;;;;;;5.40;4.05;;;;;;;1.97;100.00;101381.75;5038548;28;20211;-76
2023/01/22 06:38:30;;;;;;;4.85;3.85;;;;;;;1.97;100.00;101387.06;5037321;28;20288;-75
2023/01/22 06:40:58;;;;;;;4.82;3.90;;;;;;;2.02;100.00;101382.66;5038328;28;20731;-75
2023/01/22 06:43:26;;;;;;;6.25;4.50;;;;;;;2.04;100.00;101385.34;5038789;28;20323;-75
2023/01/22 06:45:54;;;;;;;5.88;4.70;;;;;;;1.94;100.00;101389.69;5037642;28;20578;-74
2023/01/22 06:48:21;;;;;;;5.43;4.43;;;;;;;1.98;100.00;101395.91;5041098;28;20215;-75
2023/01/22 06:50:47;;;;;;;6.82;4.65;;;;;;;2.02;100.00;101397.72;5045017;28;20228;-76
2023/01/22 06:53:14;;;;;;;9.85;7.03;;;;;;;1.97;100.00;101394.16;5046802;28;20207;-75
2023/01/22 06:55:44;;;;;;;7.07;5.28;;;;;;;2.01;100.00;101393.25;5047809;28;20261;-74
2023/01/22 06:58:10;;;;;;;7.38;5.80;;;;;;;1.98;100.00;101406.53;5047941;28;20250;-74
2023/01/22 07:00:37;;;;;;;5.72;4.40;;;;;;;2.07;100.00;101401.28;5048104;28;20237;-73
2023/01/22 07:03:06;;;;;;;5.93;5.18;;;;;;;2.08;100.00;101397.72;5045899;28;20234;-75
2023/01/22 07:05:33;;;;;;;5.60;4.88;;;;;;;2.07;100.00;101411.91;5047716;28;20641;-76
2023/01/22 07:07:59;;;;;;;5.60;5.00;;;;;;;2.06;100.00;101411.03;5047627;28;20256;-75
2023/01/22 07:10:26;;;;;;;6.50;5.57;;;;;;;2.06;100.00;101411.03;5041977;28;20218;-74
2023/01/22 07:12:57;;;;;;;6.05;5.45;;;;;;;2.09;100.00;101411.03;5040188;28;20292;-74
2023/01/22 07:15:24;;;;;;;6.97;5.28;;;;;;;2.03;100.00;101412.78;5038370;28;20201;-74
2023/01/22 07:17:51;;;;;;;6.85;5.45;;;;;;;2.05;100.00;101416.31;5036934;28;20202;-73
2023/01/22 07:20:19;;;;;;;5.10;4.10;;;;;;;2.11;100.00;101420.81;5046175;28;20291;-72
2023/01/22 07:22:45;;;;;;;5.32;4.40;;;;;;;2.05;100.00;101424.31;5050232;28;20237;-73
2023/01/22 07:25:12;;;;;;;5.50;4.03;;;;;;;2.16;100.00;101421.72;5050037;28;20210;-73
2023/01/22 07:27:38;;;;;;;6.68;4.90;;;;;;;2.18;100.00;101425.28;5049112;28;20263;-74
2023/01/22 07:30:08;;;;;;;5.40;4.47;;;;;;;2.19;100.00;101427.91;5039495;28;20229;-74
2023/01/22 07:32:35;;;;;;;6.53;5.32;;;;;;;2.17;100.00;101435.03;5039167;28;20211;-76
2023/01/22 07:35:02;;;;;;;9.05;6.63;;;;;;;2.18;100.00;101435.91;5041897;28;20232;-74
2023/01/22 07:37:28;;;;;;;8.00;5.47;;;;;;;2.11;100.00;101444.72;5017753;28;20204;-72
2023/01/22 07:39:55;;;;;;;5.07;4.25;;;;;;;2.16;100.00;101443.84;5017077;28;20581;-73
2023/01/22 07:42:21;;;;;;;5.97;4.38;;;;;;;2.09;100.00;101444.69;5017527;28;20220;-75
2023/01/22 07:44:48;;;;;;;4.65;4.22;;;;;;;2.05;100.00;101450.88;5017658;28;20276;-75
2023/01/22 07:47:16;;;;;;;5.57;4.45;;;;;;;2.10;100.00;101441.16;5017304;28;20288;-73
2023/01/22 07:49:42;;;;;;;5.25;4.53;;;;;;;2.16;100.00;101451.81;5015237;28;20201;-72
2023/01/22 07:52:09;;;;;;;5.30;4.60;;;;;;;2.14;100.00;101450.94;5016341;28;20621;-74
2023/01/22 07:54:36;;;;;;;4.97;4.43;;;;;;;2.11;100.00;101453.59;5021857;28;20201;-76
2023/01/22 07:57:03;;;;;;;5.30;3.65;;;;;;;2.10;100.00;101462.41;5014728;28;20212;-74
2023/01/22 07:59:29;;;;;;;6.50;5.00;;;;;;;2.17;100.00;101458.03;5017897;28;20212;-74
2023/01/22 08:01:57;;;;;;;5.90;4.60;;;;;;;2.18;100.00;101458.03;5022161;28;20750;-73
2023/01/22 08:04:25;;;;;;;5.18;4.28;;;;;;;2.17;100.00;101456.28;5032984;28;20230;-73
2023/01/22 08:06:52;;;;;;;4.97;4.50;;;;;;;2.30;100.00;101462.53;5024622;28;20272;-74
2023/01/22 08:09:23;;;;;;;7.07;4.97;;;;;;;2.29;100.00;101461.66;5024040;28;20215;-74
2023/01/22 08:11:51;;;;;;;5.47;4.50;;;;;;;2.24;100.00;101468.72;5019815;28;20246;-74
2023/01/22 08:14:18;;;;;;;5.90;5.13;;;;;;;2.26;100.00;101469.63;5019689;28;20205;-75
2023/01/22 08:16:45;;;;;;;5.65;4.82;;;;;;;2.35;100.00;101467.88;5020665;28;20303;-72
2023/01/22 08:19:11;;;;;;;5.68;4.78;;;;;;;2.35;100.00;101471.41;5020230;28;20198;-73
2023/01/22 08:21:39;;;;;;;6.45;4.80;;;;;;;2.37;100.00;101474.09;5024016;28;20251;-77
2023/01/22 08:24:09;;;;;;;7.65;5.10;;;;;;;2.36;100.00;101477.66;5039617;28;20674;-74
2023/01/22 08:26:39;;;;;;;5.53;4.60;;;;;;;2.42;100.00;101481.22;5040571;28;20206;-73
2023/01/22 08:29:06;;;;;;;5.80;4.93;;;;;;;2.39;100.00;101486.50;5025167;28;20295;-74
2023/01/22 08:31:33;;;;;;;4.80;4.30;;;;;;;2.42;100.00;101491.88;5021273;28;20238;-76
2023/01/22 08:34:00;;;;;;;4.65;4.15;;;;;;;2.52;100.00;101481.28;5025085;28;20223;-74
2023/01/22 08:36:26;;;;;;;5.10;4.13;;;;;;;2.57;100.00;101491.03;5037539;28;20733;-74
2023/01/22 08:38:55;;;;;;;6.40;5.20;;;;;;;2.64;100.00;101490.19;5038373;28;20211;-75
2023/01/22 08:41:22;;;;;;;5.60;4.45;;;;;;;2.80;100.00;101490.25;5038635;28;20230;-74
2023/01/22 08:43:51;;;;;;;8.00;5.65;;;;;;;2.81;100.00;101494.72;5038002;28;20216;-77
2023/01/22 08:46:17;;;;;;;5.65;5.03;;;;;;;2.85;100.00;101499.13;5041713;28;20245;-73
2023/01/22 08:48:44;;;;;;;6.07;4.53;;;;;;;2.89;100.00;101495.59;5039361;28;20661;-76
2023/01/22 08:51:11;;;;;;;107.80;63.72;;;;;;;3.15;100.00;101497.50;5036751;28;20227;-72
2023/01/22 08:53:37;;;;;;;24.08;16.02;;;;;;;3.34;100.00;101508.16;5037877;28;20211;-76
2023/01/22 08:56:06;;;;;;;8.85;5.32;;;;;;;3.29;100.00;101498.41;5038825;28;20211;-73
2023/01/22 08:58:33;;;;;;;5.70;4.70;;;;;;;3.21;100.00;101489.50;5038510;28;20210;-74
2023/01/22 09:01:00;;;;;;;4.80;4.30;;;;;;;3.29;100.00;101499.28;5038584;28;20220;-76
2023/01/22 09:03:26;;;;;;;5.38;4.70;;;;;;;3.15;100.00;101502.81;5032696;28;20236;-74
2023/01/22 09:05:53;;;;;;;5.40;4.35;;;;;;;3.20;100.00;101501.91;5022833;28;20359;-77
2023/01/22 09:08:20;;;;;;;5.47;4.90;;;;;;;3.31;100.00;101509.94;5033488;28;20204;-73
2023/01/22 09:10:48;;;;;;;6.65;4.88;;;;;;;3.44;100.00;101495.78;5047807;28;20231;-75
2023/01/22 09:13:16;;;;;;;6.50;4.25;;;;;;;3.49;100.00;101509.97;5046621;28;20200;-75
2023/01/22 09:15:42;;;;;;;5.10;4.60;;;;;;;3.71;100.00;101507.34;5046933;28;20204;-73
2023/01/22 09:18:11;;;;;;;5.05;4.55;;;;;;;3.64;100.00;101516.19;5044003;28;20267;-74
2023/01/22 09:20:38;;;;;;;6.43;4.88;;;;;;;3.69;100.00;101518.00;5040545;28;20553;-75
2023/01/22 09:23:06;;;;;;;5.57;4.80;;;;;;;3.62;100.00;101515.31;5039071;28;20235;-76
2023/01/22 09:25:33;;;;;;;5.30;4.50;;;;;;;3.42;100.00;101524.16;5035053;28;20208;-76
2023/01/22 09:28:00;;;;;;;5.13;4.53;;;;;;;3.36;100.00;101520.59;5022367;28;20206;-76
2023/01/22 09:30:29;;;;;;;6.75;4.20;;;;;;;3.24;100.00;101530.34;5021557;28;20232;-77
2023/01/22 09:32:57;;;;;;;6.10;4.97;;;;;;;3.29;100.00;101525.91;5021650;28;20201;-76
2023/01/22 09:35:25;;;;;;;6.00;4.90;;;;;;;3.21;100.00;101525.00;5023542;28;20198;-76
2023/01/22 09:37:55;;;;;;;5.05;4.55;;;;;;;3.19;100.00;101533.84;5024859;28;20201;-77
2023/01/22 09:40:26;;;;;;;6.47;4.93;;;;;;;3.30;100.00;101535.69;5032702;28;20220;-75
2023/01/22 09:43:02;;;;;;;5.55;4.25;;;;;;;3.25;100.00;101533.88;5034410;28;20566;-77
2023/01/22 09:45:32;;;;;;;4.85;4.32;;;;;;;3.28;100.00;101529.47;5014225;28;20232;-76
2023/01/22 09:48:01;;;;;;;4.90;3.88;;;;;;;3.26;100.00;101527.69;5021701;28;20200;-77
2023/01/22 09:50:32;;;;;;;5.35;4.03;;;;;;;3.28;100.00;101531.25;5038338;28;20225;-77
2023/01/22 09:53:05;;;;;;;11.30;4.80;;;;;;;3.27;100.00;101534.78;5040105;28;20184;-78
2023/01/22 09:55:47;;;;;;;5.75;4.60;;;;;;;3.25;100.00;101533.88;5028071;28;20304;-77
2023/01/22 09:58:16;;;;;;;6.30;4.80;;;;;;;3.26;100.00;101533.91;5017685;28;20189;-76
2023/01/22 10:00:49;;;;;;;38.28;24.98;;;;;;;3.54;100.00;101529.50;5015632;28;20218;-70
2023/01/22 10:03:22;;;;;;;10.32;6.63;;;;;;;3.73;100.00;101527.78;5015742;28;20218;-70
2023/01/22 10:05:51;;;;;;;11.77;7.43;;;;;;;3.76;100.00;101540.19;5015903;28;20650;-69
2023/01/22 10:08:20;;;;;;;9.35;6.28;;;;;;;3.81;100.00;101533.09;5015056;28;20216;-69
2023/01/22 10:10:50;;;;;;;23.73;17.40;;;;;;;4.03;100.00;101528.66;5016622;28;20240;-72
2023/01/22 10:13:20;;;;;;;34.55;25.33;;;;;;;4.09;100.00;101528.66;5016290;28;20271;-70
2023/01/22 10:15:50;;;;;;;9.68;7.13;;;;;;;4.28;100.00;101540.19;5016168;28;20209;-69
2023/01/22 10:18:26;;;;;;;7.10;6.20;;;;;;;4.24;100.00;101529.53;5015830;28;20211;-68
2023/01/22 10:20:54;;;;;;;8.15;5.85;;;;;;;4.32;100.00;101536.63;5015199;28;20248;-70
2023/01/22 10:23:22;;;;;;;8.35;6.80;;;;;;;4.48;100.00;101532.16;5015221;28;20204;-70
2023/01/22 10:25:53;;;;;;;6.93;4.70;;;;;;;4.47;100.00;101535.69;5015288;28;20213;-70
2023/01/22 10:28:25;;;;;;;4.68;3.97;;;;;;;4.39;100.00;101533.06;5014554;28;20550;-69
2023/01/22 10:30:57;;;;;;;4.70;4.30;;;;;;;4.35;100.00;101523.28;5014777;28;20660;-70
2023/01/22 10:33:26;;;;;;;4.90;3.83;;;;;;;4.53;100.00;101532.16;5015548;28;20284;-72
2023/01/22 10:35:56;;;;;;;5.10;4.60;;;;;;;4.52;100.00;101528.59;5017530;28;20263;-69
2023/01/22 10:38:26;;;;;;;4.90;3.97;;;;;;;4.52;100.00;101530.34;5022056;28;20230;-75
2023/01/22 10:41:00;;;;;;;5.43;4.20;;;;;;;4.45;100.00;101536.59;5026794;28;20307;-76
2023/01/22 10:43:32;;;;;;;5.35;4.00;;;;;;;4.36;100.00;101533.06;5021256;28;20196;-76
2023/01/22 10:46:05;;;;;;;5.30;4.40;;;;;;;4.22;100.00;101542.84;5037644;28;20208;-76
2023/01/22 10:48:32;;;;;;;4.95;4.13;;;;;;;4.20;100.00;101544.63;5038399;28;20227;-78
2023/01/22 10:51:12;;;;;;;4.20;3.80;;;;;;;4.16;100.00;101534.84;5039563;28;20298;-77
2023/01/22 10:53:46;;;;;;;5.28;4.60;;;;;;;4.10;100.00;101540.22;5031195;28;20201;-78
2023/01/22 10:56:24;;;;;;;4.80;4.30;;;;;;;4.14;100.00;101529.53;5044923;28;20258;-79
2023/01/22 10:58:51;;;;;;;7.70;4.30;;;;;;;4.31;100.00;101542.84;5043412;28;20715;-78
2023/01/22 11:01:31;;;;;;;4.65;4.20;;;;;;;4.48;100.00;101534.81;5029859;28;20613;-79
2023/01/22 11:04:11;;;;;;;7.47;5.63;;;;;;;4.48;100.00;101536.59;5033049;28;20218;-78
2023/01/22 11:06:41;;;;;;;4.20;3.78;;;;;;;4.48;100.00;101528.59;5023084;28;20271;-77
2023/01/22 11:09:15;;;;;;;5.30;4.72;;;;;;;4.46;100.00;101533.94;5027325;28;20193;-76
2023/01/22 11:11:48;;;;;;;5.95;4.65;;;;;;;4.27;100.00;101538.41;5018679;28;20311;-77
2023/01/22 11:14:23;;;;;;;5.50;4.72;;;;;;;4.34;100.00;101537.53;5022408;28;20200;-77
2023/01/22 11:16:53;;;;;;;5.18;4.40;;;;;;;4.20;100.00;101538.41;5019386;28;20192;-75
2023/01/22 11:19:23;;;;;;;6.57;4.20;;;;;;;4.18;100.00;101544.66;4999595;28;20201;-75
2023/01/22 11:21:52;;;;;;;4.60;4.20;;;;;;;4.22;100.00;101542.84;5016320;28;20321;-76
2023/01/22 11:24:24;;;;;;;5.18;4.22;;;;;;;4.20;100.00;101541.97;5016152;28;20224;-76
2023/01/22 11:27:02;;;;;;;59.30;38.30;;;;;;;4.45;100.00;101539.25;5007754;28;20201;-74
2023/01/22 11:30:07;;;;;;;12.98;7.80;;;;;;;4.35;100.00;101543.75;5021102;28;20205;-77
2023/01/22 11:32:51;;;;;;;5.63;5.00;;;;;;;4.12;100.00;101546.44;5032861;28;20207;-75
2023/01/22 11:35:27;;;;;;;5.40;4.88;;;;;;;4.21;100.00;101537.53;5026156;28;20202;-77
2023/01/22 11:38:06;;;;;;;10.02;7.30;;;;;;;4.08;100.00;101541.97;5020639;28;20685;-76